Lake Clark National Park, AK

3:03 PM AKST on March 05, 2015 (GMT -0900)
RAWS SNIPE LAKE AK US | Change Station
CLOSE
Current Station
Personal Weather Station
Location: Port Alsworth, AK
Elevation: 2314 ft
Nearby Weather Stations

Elev 2314 ft 60.61 °N, 154.32 °W | Updated 59 minutes ago

Light Snow
Light Snow
29 °F
Feels Like 21 °F
N
9
Wind Variable Wind from WSW
Gusts 12.0 mph

Today
High -- | Low -- °F
--% Chance of Precip.
Yesterday
High -- | Low -- °F
Precip. -- in
8:05 AM 6:55 PM
Full, 100% visible
Pressure 29.97 in
Visibility 4.0 miles
Clouds Overcast 900 ft
Windchill 21 °F
Dew Point 27 °F
Humidity 90%
Rainfall in
Snow Depth Not available.
UV 1 out of 12
Pollen Not available.
Air Quality Not available.
Flu Activity Not available.
METAR PASV 052355Z AUTO 29004KT 4SM -SN OVC009 M02/M03 A2990 RMK AO2 SNB2241 SLP149 P0002 60002 T10161026 11009 21028 52016

More Conditions Fewer Conditions

Pressure 29.97 in
Visibility 4.0 miles
Clouds Overcast 900 ft
Windchill 21 °F
Dew Point 27 °F
Humidity 90%
Rainfall in
Snow Depth Not available.
UV 1 out of 12
Pollen Not available.
Air Quality Not available.
Flu Activity Not available.
METAR PASV 052355Z AUTO 29004KT 4SM -SN OVC009 M02/M03 A2990 RMK AO2 SNB2241 SLP149 P0002 60002 T10161026 11009 21028 52016

More Conditions Fewer Conditions

10-Day Weather Forecast

Almanac

Astronomy

Mar. 05, 2015 Rise Set
Actual Time
Civil Twilight
Nautical Twilight
Astronomical Twilight
Moon
Length of Visible Light
Length of Day
Tomorrow will be .
, % of the Moon is Illuminated

Today's Extremes

State Highs State Lows

Community

WunderPhotos

Upload Photos

1,803,066 photos uploaded!

WunderBlogs® & News

Nearby

Air Quality

  Air Quality AQ Index Pollutant
Not available.

Snow Depth

Station Depth Elevation

Earthquake Activity

City Distance Mag. Time & Date
Minimum magnitude displayed is 2.5.

Coastal Water Temperatures

Place Temperature

Nearby Weather Stations